createdAt,value
2022-11-24T00:03:17.026Z,99422.86
2022-11-24T00:08:20.846Z,99432.21
2022-11-24T00:13:24.464Z,99432.64
2022-11-24T00:18:28.184Z,99435.66
2022-11-24T00:23:31.802Z,99440.53
2022-11-24T00:28:36.554Z,99445.02
2022-11-24T00:33:39.855Z,99443.72
2022-11-24T00:38:43.886Z,99448.44
2022-11-24T00:43:47.296Z,99438.25
2022-11-24T00:48:50.923Z,99434.23
2022-11-24T00:53:55.744Z,99438.27
2022-11-24T00:58:59.286Z,99439.66
2022-11-24T01:04:02.894Z,99435.26
2022-11-24T01:09:06.410Z,99423.70
2022-11-24T01:14:09.925Z,99414.92
2022-11-24T01:19:13.341Z,99415.08
2022-11-24T01:24:17.060Z,99423.50
2022-11-24T01:29:20.473Z,99413.83
2022-11-24T01:34:24.095Z,99405.64
2022-11-24T01:39:27.707Z,99406.23
2022-11-24T01:44:32.105Z,99405.63
2022-11-24T01:49:41.199Z,99419.20
2022-11-24T01:54:55.560Z,99423.65
2022-11-24T02:00:04.936Z,99422.73
2022-11-24T02:05:17.340Z,99425.90
2022-11-24T02:10:22.080Z,99436.05
2022-11-24T02:15:26.007Z,99439.84
2022-11-24T02:20:29.429Z,99442.21
2022-11-24T02:25:35.904Z,99435.10
2022-11-24T02:30:39.774Z,99418.09
2022-11-24T02:35:43.762Z,99425.67
2022-11-24T02:40:49.533Z,99428.54
2022-11-24T02:45:53.036Z,99429.77
2022-11-24T02:50:56.659Z,99429.20
2022-11-24T02:56:00.172Z,99425.23
2022-11-24T03:01:05.029Z,99412.42
2022-11-24T03:06:08.650Z,99430.45
2022-11-24T03:11:12.570Z,99433.91
2022-11-24T03:16:16.181Z,99438.58
2022-11-24T03:21:20.643Z,99433.52
2022-11-24T03:26:26.048Z,99437.34
2022-11-24T03:31:29.528Z,99424.71
2022-11-24T03:36:33.116Z,99419.59
2022-11-24T03:41:36.831Z,99425.45
2022-11-24T03:46:40.385Z,99433.67
2022-11-24T03:51:44.171Z,99431.36
2022-11-24T03:56:47.995Z,99426.33
2022-11-24T04:01:51.789Z,99431.27
2022-11-24T04:06:55.329Z,99445.05
2022-11-24T04:12:17.689Z,99451.01
2022-11-24T04:17:21.204Z,99448.70
2022-11-24T04:22:24.822Z,99451.66
2022-11-24T04:27:28.951Z,99448.02
2022-11-24T04:32:32.774Z,99446.86
2022-11-24T04:37:36.290Z,99451.91
2022-11-24T04:42:40.012Z,99450.27
2022-11-24T04:47:43.424Z,99446.35
2022-11-24T04:52:47.148Z,99451.48
2022-11-24T04:57:50.865Z,99461.62
2022-11-24T05:02:54.481Z,99457.46
2022-11-24T05:08:00.956Z,99458.50
2022-11-24T05:13:13.610Z,99466.27
2022-11-24T05:18:17.514Z,99468.53
2022-11-24T05:23:21.029Z,99469.62
2022-11-24T05:28:26.579Z,99480.02
2022-11-24T05:33:33.661Z,99481.73
2022-11-24T05:38:37.208Z,99483.48
2022-11-24T05:43:40.621Z,99486.26
2022-11-24T05:48:44.136Z,99487.24
2022-11-24T05:53:47.549Z,99486.42
2022-11-24T05:58:51.064Z,99493.27
2022-11-24T06:03:54.579Z,99491.11
2022-11-24T06:08:57.993Z,99484.84
2022-11-24T06:14:01.611Z,99497.98
2022-11-24T06:19:07.992Z,99507.08
2022-11-24T06:24:11.718Z,99517.20
2022-11-24T06:29:15.336Z,99525.46
2022-11-24T06:34:19.258Z,99532.37
2022-11-24T06:39:22.876Z,99542.41
2022-11-24T06:44:26.697Z,99550.95
2022-11-24T06:49:30.213Z,99549.77
2022-11-24T06:54:34.671Z,99538.75
2022-11-24T06:59:38.167Z,99535.02
2022-11-24T07:04:41.683Z,99535.55
2022-11-24T07:09:45.299Z,99533.79
2022-11-24T07:14:48.922Z,99538.67
2022-11-24T07:19:53.048Z,99543.00
2022-11-24T07:24:56.460Z,99555.10
2022-11-24T07:29:59.974Z,99572.02
2022-11-24T07:35:04.108Z,99576.63
2022-11-24T07:40:08.441Z,99576.45
2022-11-24T07:45:11.855Z,99570.83
2022-11-24T07:50:15.473Z,99574.95
2022-11-24T07:55:19.089Z,99573.02
2022-11-24T08:00:22.712Z,99570.23
2022-11-24T08:05:26.329Z,99563.09
2022-11-24T08:10:30.284Z,99560.61
2022-11-24T08:15:33.666Z,99565.13
2022-11-24T08:20:37.179Z,99568.83
2022-11-24T08:25:40.695Z,99582.46
2022-11-24T08:30:44.312Z,99586.36
2022-11-24T08:35:47.829Z,99588.80
2022-11-24T08:40:51.446Z,99589.95
2022-11-24T08:45:54.997Z,99596.45
2022-11-24T08:50:59.604Z,99599.64
2022-11-24T08:56:04.030Z,99601.96
2022-11-24T09:01:10.975Z,99595.23
2022-11-24T09:06:15.064Z,99596.91
2022-11-24T09:11:19.716Z,99590.52
2022-11-24T09:16:26.382Z,99583.14
2022-11-24T09:21:31.146Z,99578.19
2022-11-24T09:26:37.320Z,99576.61
2022-11-24T09:31:40.936Z,99587.49
2022-11-24T09:36:44.352Z,99592.98
2022-11-24T09:42:06.813Z,99598.17
2022-11-24T09:47:16.571Z,99606.40
2022-11-24T09:52:32.888Z,99612.84
2022-11-24T09:57:41.527Z,99610.89
2022-11-24T10:02:48.352Z,99609.25
2022-11-24T10:08:06.885Z,99609.92
2022-11-24T10:13:53.716Z,99609.92
2022-11-24T10:19:37.721Z,99613.80
2022-11-24T10:25:20.105Z,99617.16
2022-11-24T10:30:26.591Z,99608.47
2022-11-24T10:35:57.347Z,99604.83
2022-11-24T10:41:06.501Z,99604.30
2022-11-24T10:46:20.069Z,99603.04
2022-11-24T10:51:58.404Z,99599.14
2022-11-24T10:57:02.506Z,99601.27
2022-11-24T11:02:36.206Z,99600.90
2022-11-24T11:07:39.967Z,99604.63
2022-11-24T11:12:44.979Z,99605.41
2022-11-24T11:17:52.663Z,99607.77
2022-11-24T11:22:58.452Z,99604.95
2022-11-24T11:28:40.721Z,99606.94
2022-11-24T11:34:08.065Z,99614.67
2022-11-24T11:39:36.280Z,99612.63
2022-11-24T11:44:49.211Z,99616.22
2022-11-24T11:49:53.238Z,99611.42
2022-11-24T11:55:27.476Z,99612.04
2022-11-24T12:00:35.701Z,99620.63
2022-11-24T12:06:01.027Z,99628.42
2022-11-24T12:11:32.194Z,99629.75
2022-11-24T12:16:49.838Z,99620.42
2022-11-24T12:22:14.456Z,99617.11
2022-11-24T12:27:55.442Z,99615.92
2022-11-24T12:33:17.492Z,99612.60
2022-11-24T12:38:55.934Z,99616.30
2022-11-24T12:44:01.283Z,99618.52
2022-11-24T12:49:21.798Z,99618.48
2022-11-24T12:54:32.890Z,99613.06
2022-11-24T13:00:01.965Z,99608.62
2022-11-24T13:05:39.621Z,99611.20
2022-11-24T13:10:58.825Z,99616.11
2022-11-24T13:21:51.971Z,99616.58
2022-11-24T13:27:20.008Z,99613.27
2022-11-24T13:32:23.420Z,99613.98
2022-11-24T13:37:34.221Z,99616.60
2022-11-24T13:43:03.530Z,99616.35
2022-11-24T13:48:19.221Z,99615.98
2022-11-24T13:59:35.586Z,99624.69
2022-11-24T14:04:44.435Z,99627.64
2022-11-24T14:09:52.148Z,99632.27
2022-11-24T14:15:21.052Z,99633.98
2022-11-24T14:20:27.128Z,99646.52
2022-11-24T14:25:32.261Z,99657.23
2022-11-24T14:30:35.592Z,99665.57
2022-11-24T14:35:44.755Z,99671.70
2022-11-24T14:40:54.075Z,99671.60
2022-11-24T14:46:09.646Z,99676.26
2022-11-24T14:51:22.217Z,99671.63
2022-11-24T14:56:27.573Z,99673.98
2022-11-24T15:01:34.944Z,99674.39
2022-11-24T15:06:40.802Z,99678.40
2022-11-24T15:11:44.369Z,99683.48
2022-11-24T15:16:48.037Z,99686.29
2022-11-24T15:21:51.807Z,99689.34
2022-11-24T15:27:01.781Z,99686.91
2022-11-24T15:32:15.547Z,99695.20
2022-11-24T15:37:18.840Z,99693.06
2022-11-24T15:42:22.356Z,99698.47
2022-11-24T15:47:25.769Z,99695.49
2022-11-24T15:52:29.286Z,99691.66
2022-11-24T15:57:35.770Z,99694.08
2022-11-24T16:02:45.126Z,99688.54
2022-11-24T16:07:48.822Z,99682.77
2022-11-24T16:12:52.564Z,99682.93
2022-11-24T16:17:55.979Z,99689.60
2022-11-24T16:22:59.441Z,99694.27
2022-11-24T16:28:03.015Z,99694.79
2022-11-24T16:33:07.136Z,99702.76
2022-11-24T16:38:24.579Z,99704.67
2022-11-24T16:43:29.222Z,99708.60
2022-11-24T16:48:38.780Z,99711.16
2022-11-24T16:53:43.026Z,99712.50
2022-11-24T16:58:46.527Z,99715.46
2022-11-24T17:03:50.043Z,99717.84
2022-11-24T17:08:55.915Z,99718.73
2022-11-24T17:13:59.326Z,99722.02
2022-11-24T17:19:03.249Z,99729.55
2022-11-24T17:24:07.477Z,99738.48
2022-11-24T17:29:11.304Z,99745.73
2022-11-24T17:34:14.722Z,99748.18
2022-11-24T17:39:23.240Z,99752.73
2022-11-24T17:44:28.508Z,99754.88
2022-11-24T17:49:31.818Z,99760.70
2022-11-24T17:54:50.495Z,99770.57
2022-11-24T17:59:53.901Z,99774.80
2022-11-24T18:04:57.316Z,99776.21
2022-11-24T18:10:01.048Z,99776.54
2022-11-24T18:15:04.937Z,99778.88
2022-11-24T18:20:10.944Z,99778.13
2022-11-24T18:25:14.449Z,99783.95
2022-11-24T18:30:18.493Z,99790.45
2022-11-24T18:35:21.889Z,99791.59
2022-11-24T18:40:25.718Z,99792.65
2022-11-24T18:45:29.398Z,99790.11
2022-11-24T18:50:33.563Z,99800.01
2022-11-24T18:55:37.080Z,99801.10
2022-11-24T19:00:40.491Z,99798.94
2022-11-24T19:05:44.110Z,99805.04
2022-11-24T19:10:49.674Z,99801.92
2022-11-24T19:15:53.190Z,99801.98
2022-11-24T19:20:57.830Z,99797.85
2022-11-24T19:26:01.654Z,99790.58
2022-11-24T19:31:07.933Z,99798.27
2022-11-24T19:36:16.677Z,99804.50
2022-11-24T19:41:21.927Z,99813.84
2022-11-24T19:46:27.855Z,99816.79
2022-11-24T19:51:36.530Z,99825.98
2022-11-24T19:56:41.592Z,99827.54
2022-11-24T20:01:45.256Z,99825.58
2022-11-24T20:06:49.136Z,99829.61
2022-11-24T20:11:52.647Z,99831.85
2022-11-24T20:16:56.233Z,99832.05
2022-11-24T20:22:00.499Z,99831.52
2022-11-24T20:27:04.120Z,99840.83
2022-11-24T20:32:09.045Z,99839.59
2022-11-24T20:37:13.914Z,99847.93
2022-11-24T20:42:17.429Z,99854.66
2022-11-24T20:47:20.943Z,99862.95
2022-11-24T20:52:24.460Z,99861.11
2022-11-24T20:57:27.871Z,99853.27
2022-11-24T21:02:31.476Z,99858.79
2022-11-24T21:07:35.372Z,99871.12
2022-11-24T21:12:38.930Z,99874.40
2022-11-24T21:17:42.344Z,99873.73
2022-11-24T21:22:45.860Z,99878.29
2022-11-24T21:27:49.373Z,99880.13
2022-11-24T21:32:52.786Z,99883.13
2022-11-24T21:37:56.615Z,99885.02
2022-11-24T21:43:00.123Z,99884.77
2022-11-24T21:48:03.644Z,99884.20
2022-11-24T21:53:09.719Z,99888.88
2022-11-24T21:58:13.232Z,99885.38
2022-11-24T22:03:17.690Z,99873.26
2022-11-24T22:08:22.104Z,99869.60
2022-11-24T22:13:25.623Z,99873.02
2022-11-24T22:18:38.284Z,99870.30
2022-11-24T22:23:42.541Z,99873.37
2022-11-24T22:28:46.614Z,99882.27
2022-11-24T22:33:50.742Z,99891.45
2022-11-24T22:38:56.116Z,99898.40
2022-11-24T22:43:59.924Z,99901.71
2022-11-24T22:49:03.458Z,99902.59
2022-11-24T22:54:06.954Z,99915.71
2022-11-24T22:59:10.474Z,99926.17
2022-11-24T23:04:14.570Z,99919.20
2022-11-24T23:09:18.115Z,99923.65
2022-11-24T23:14:21.634Z,99928.00
2022-11-24T23:19:25.044Z,99920.23
2022-11-24T23:24:28.561Z,99922.31
2022-11-24T23:29:31.974Z,99917.94
2022-11-24T23:34:35.677Z,99916.83
2022-11-24T23:39:39.414Z,99912.44
2022-11-24T23:44:42.928Z,99905.59
2022-11-24T23:49:46.446Z,99901.88
2022-11-24T23:54:49.959Z,99899.75
2022-11-24T23:59:54.090Z,99895.88
